Time;durP1;ratioP1;P1;durP2;ratioP2;P2;SDS_P1;SDS_P2;PMS_P1;PMS_P2;Temp;Humidity;BMP_temperature;BMP_pressure;BME280_temperature;BME280_humidity;BME280_pressure;Samples;Min_cycle;Max_cycle;Signal;HPM_P1;HPM_P2
2023/09/11 00:06:47;;;;;;;6.28;5.03;;;12.60;99.90;;;;;;21058247;28;20036;-63
2023/09/11 00:16:49;;;;;;;8.02;5.35;;;12.50;99.90;;;;;;21057965;28;20028;-64
2023/09/11 00:26:51;;;;;;;6.53;4.10;;;12.40;99.90;;;;;;21057171;28;20337;-64
2023/09/11 00:36:53;;;;;;;5.50;4.10;;;12.40;99.90;;;;;;21055806;28;20032;-56
2023/09/11 00:46:54;;;;;;;5.10;3.50;;;12.50;99.90;;;;;;21037740;28;20486;-64
2023/09/11 00:56:56;;;;;;;4.45;3.70;;;12.70;99.90;;;;;;21054469;28;20044;-64
2023/09/11 01:06:59;;;;;;;5.80;3.42;;;12.20;99.90;;;;;;21036940;28;20044;-55
2023/09/11 01:17:13;;;;;;;4.25;3.30;;;12.10;99.90;;;;;;21036428;28;20069;-56
2023/09/11 01:27:38;;;;;;;5.20;3.15;;;12.40;99.90;;;;;;21053845;28;20036;-56
2023/09/11 01:37:41;;;;;;;4.03;3.22;;;12.60;99.90;;;;;;21053625;28;20036;-55
2023/09/11 01:47:50;;;;;;;6.65;3.60;;;12.20;99.90;;;;;;21053229;28;20066;-56
2023/09/11 01:57:52;;;;;;;5.00;3.30;;;12.40;99.90;;;;;;21052547;28;20530;-55
2023/09/11 02:07:53;;;;;;;5.72;3.40;;;12.50;99.90;;;;;;21035984;28;20044;-59
2023/09/11 02:17:55;;;;;;;6.35;3.72;;;12.50;99.90;;;;;;21067657;28;20028;-56
2023/09/11 02:27:57;;;;;;;4.68;3.63;;;12.00;99.90;;;;;;21048418;28;20028;-56
2023/09/11 02:37:59;;;;;;;6.05;4.15;;;11.90;99.90;;;;;;21065529;28;20082;-55
2023/09/11 02:48:01;;;;;;;5.20;3.95;;;11.80;99.90;;;;;;21065076;28;20043;-64
2023/09/11 02:58:03;;;;;;;5.93;4.60;;;12.00;99.90;;;;;;21045319;28;20081;-63
2023/09/11 03:08:06;;;;;;;4.40;3.35;;;12.20;99.90;;;;;;21048507;28;20059;-63
2023/09/11 03:18:08;;;;;;;5.28;4.35;;;12.30;99.90;;;;;;21044362;28;20035;-63
2023/09/11 03:28:09;;;;;;;5.10;4.30;;;12.90;99.90;;;;;;21047241;28;20033;-63
2023/09/11 03:38:11;;;;;;;5.88;4.28;;;12.50;99.90;;;;;;21016256;28;20036;-63
2023/09/11 03:48:13;;;;;;;6.43;5.50;;;12.60;99.90;;;;;;21011749;28;20028;-55
2023/09/11 03:58:17;;;;;;;7.30;6.15;;;12.40;99.90;;;;;;21009371;28;20539;-62
2023/09/11 04:08:19;;;;;;;9.18;6.80;;;12.30;99.90;;;;;;21010891;28;20036;-58
2023/09/11 04:18:20;;;;;;;7.32;5.45;;;12.30;99.90;;;;;;21026214;28;20393;-63
2023/09/11 04:28:22;;;;;;;6.28;5.00;;;12.60;99.90;;;;;;21002709;28;20036;-63
2023/09/11 04:38:24;;;;;;;5.93;4.00;;;12.80;99.90;;;;;;21027659;28;20081;-55
2023/09/11 04:48:28;;;;;;;10.00;5.63;;;12.90;99.90;;;;;;21007662;28;20116;-63
2023/09/11 04:58:30;;;;;;;9.10;5.10;;;12.20;99.90;;;;;;21004845;28;20031;-63
2023/09/11 05:08:32;;;;;;;10.30;6.93;;;12.90;99.90;;;;;;21018118;28;20048;-56
2023/09/11 05:18:36;;;;;;;11.50;9.57;;;12.80;99.90;;;;;;21025389;28;20099;-63
2023/09/11 05:28:38;;;;;;;14.45;10.60;;;12.70;99.90;;;;;;21010214;28;20036;-56
2023/09/11 05:38:40;;;;;;;11.40;10.20;;;12.80;99.90;;;;;;21007118;28;20032;-54
2023/09/11 05:48:42;;;;;;;15.48;11.45;;;13.10;99.90;;;;;;21032330;28;20393;-63
2023/09/11 05:58:44;;;;;;;15.10;12.63;;;13.20;99.90;;;;;;21026396;28;20045;-63
2023/09/11 06:08:46;;;;;;;13.88;11.43;;;13.60;99.90;;;;;;21029664;28;20044;-63
2023/09/11 06:18:48;;;;;;;13.00;11.00;;;14.30;99.90;;;;;;21016953;28;20048;-63
2023/09/11 06:28:50;;;;;;;17.17;12.45;;;14.40;99.90;;;;;;21016343;28;20058;-63
2023/09/11 06:38:52;;;;;;;13.80;11.55;;;14.40;99.90;;;;;;21011187;28;20032;-57
2023/09/11 06:48:54;;;;;;;12.88;11.57;;;14.70;99.90;;;;;;21020931;28;20032;-62
2023/09/11 06:58:57;;;;;;;14.73;10.65;;;15.50;99.90;;;;;;21006664;28;20416;-61
2023/09/11 07:08:59;;;;;;;10.57;9.48;;;16.80;99.90;;;;;;21011138;28;20040;-61
2023/09/11 07:19:00;;;;;;;10.98;9.77;;;18.10;99.90;;;;;;21002131;28;20032;-61
2023/09/11 07:29:03;;;;;;;12.13;9.50;;;19.10;99.90;;;;;;21026873;28;20032;-60
2023/09/11 07:39:05;;;;;;;10.38;9.38;;;19.80;99.90;;;;;;21024610;28;20031;-60
2023/09/11 07:49:06;;;;;;;10.68;9.68;;;20.50;99.90;;;;;;20998619;28;20086;-61
2023/09/11 07:59:08;;;;;;;10.15;8.70;;;21.70;99.90;;;;;;21019779;28;20380;-58
2023/09/11 08:09:11;;;;;;;10.95;8.98;;;;;;;;;;21014235;28;20040;-61
2023/09/11 08:19:13;;;;;;;8.60;7.80;;;23.00;99.90;;;;;;21004987;28;20032;-60
2023/09/11 08:29:15;;;;;;;9.68;8.40;;;23.60;99.90;;;;;;21000373;28;20032;-60
2023/09/11 08:39:18;;;;;;;8.93;8.02;;;24.00;99.90;;;;;;21011559;28;20423;-61
2023/09/11 08:49:23;;;;;;;9.52;7.95;;;24.40;99.90;;;;;;21025748;28;20032;-61
2023/09/11 08:59:27;;;;;;;9.32;8.32;;;24.70;99.90;;;;;;21011303;28;20086;-60
2023/09/11 09:09:30;;;;;;;10.30;8.60;;;24.80;99.90;;;;;;21018114;28;20040;-60
2023/09/11 09:19:34;;;;;;;9.00;7.90;;;25.20;99.90;;;;;;21011816;28;20124;-60
2023/09/11 09:29:38;;;;;;;8.30;7.50;;;25.40;99.90;;;;;;21029773;28;20101;-58
2023/09/11 09:39:42;;;;;;;8.40;7.60;;;25.50;99.90;;;;;;21027780;28;20029;-60
2023/09/11 09:49:54;;;;;;;11.02;8.48;;;25.80;99.90;;;;;;21026403;28;20040;-60
2023/09/11 09:59:59;;;;;;;8.10;7.30;;;26.20;99.90;;;;;;21007985;28;20028;-56
2023/09/11 10:10:28;;;;;;;9.35;7.75;;;26.10;99.90;;;;;;21018954;28;20040;-60
2023/09/11 10:20:33;;;;;;;9.23;8.30;;;25.90;99.90;;;;;;21018420;28;20061;-55
2023/09/11 10:30:59;;;;;;;10.20;7.47;;;26.20;99.90;;;;;;21012940;28;20551;-60
2023/09/11 10:41:03;;;;;;;8.65;7.47;;;26.20;99.90;;;;;;21020571;28;20492;-59
2023/09/11 10:51:07;;;;;;;8.60;7.80;;;26.30;99.90;;;;;;21022791;28;20036;-59
2023/09/11 11:01:16;;;;;;;8.57;7.78;;;26.30;99.90;;;;;;21018164;28;20037;-59
2023/09/11 11:11:21;;;;;;;8.23;7.43;;;26.40;99.90;;;;;;21013331;28;20417;-59
2023/09/11 11:21:36;;;;;;;10.20;7.65;;;26.50;99.70;;;;;;21013382;28;20032;-59
2023/09/11 11:31:40;;;;;;;8.30;7.50;;;26.60;99.90;;;;;;21005041;28;20477;-60
2023/09/11 11:41:44;;;;;;;8.45;7.10;;;26.80;99.60;;;;;;21012690;28;20075;-56
2023/09/11 11:51:48;;;;;;;8.60;7.75;;;26.70;98.70;;;;;;21023680;28;20397;-59
2023/09/11 12:01:51;;;;;;;9.30;7.90;;;26.60;98.50;;;;;;21006402;28;20430;-59
2023/09/11 12:11:55;;;;;;;9.45;7.78;;;26.40;99.00;;;;;;21027256;28;20092;-59
2023/09/11 12:21:59;;;;;;;9.80;8.60;;;26.60;99.20;;;;;;20999819;28;20482;-59
2023/09/11 12:32:05;;;;;;;10.20;8.95;;;26.70;99.90;;;;;;21004858;28;20036;-59
2023/09/11 12:42:09;;;;;;;10.63;9.45;;;26.70;98.50;;;;;;21027559;28;20385;-59
2023/09/11 12:52:13;;;;;;;12.82;9.57;;;26.70;97.60;;;;;;21012864;28;20020;-59
2023/09/11 13:02:17;;;;;;;9.98;8.70;;;26.60;99.10;;;;;;21005672;28;20036;-59
2023/09/11 13:12:19;;;;;;;9.73;8.65;;;26.70;99.70;;;;;;21013389;28;20044;-59
2023/09/11 13:22:27;;;;;;;11.53;9.37;;;26.90;99.90;;;;;;21018103;28;20051;-59
2023/09/11 13:32:33;;;;;;;11.25;9.02;;;26.80;97.70;;;;;;20993161;28;20094;-60
2023/09/11 13:42:37;;;;;;;9.40;8.07;;;26.30;98.60;;;;;;21003848;28;20120;-59
2023/09/11 13:52:40;;;;;;;12.82;9.57;;;26.40;98.80;;;;;;20995049;28;20074;-60
2023/09/11 14:02:44;;;;;;;10.25;9.18;;;26.40;98.00;;;;;;21010931;28;20097;-60
2023/09/11 14:12:46;;;;;;;12.02;9.48;;;26.00;99.60;;;;;;21040381;28;20052;-61
2023/09/11 14:22:50;;;;;;;10.25;9.25;;;25.90;98.30;;;;;;21030606;28;20036;-62
2023/09/11 14:32:52;;;;;;;12.60;10.40;;;25.60;99.90;;;;;;21008202;28;20028;-61
2023/09/11 14:42:55;;;;;;;13.68;11.75;;;24.80;99.90;;;;;;21024111;28;20085;-59
2023/09/11 14:52:58;;;;;;;17.50;15.68;;;24.50;99.90;;;;;;21016921;28;20089;-64
2023/09/11 15:03:00;;;;;;;19.92;15.18;;;24.00;99.90;;;;;;21027105;28;20070;-65
2023/09/11 15:13:04;;;;;;;17.88;15.27;;;23.50;99.90;;;;;;21031781;28;20056;-64
2023/09/11 15:23:10;;;;;;;19.08;17.15;;;22.80;99.90;;;;;;21016749;28;20490;-64
2023/09/11 15:33:13;;;;;;;22.88;16.67;;;22.20;99.90;;;;;;20974852;28;20114;-63
2023/09/11 15:43:19;;;;;;;19.80;17.15;;;21.50;99.90;;;;;;21013312;28;20036;-63
2023/09/11 15:53:23;;;;;;;18.25;16.35;;;21.10;99.90;;;;;;20978166;28;20045;-62
2023/09/11 16:03:32;;;;;;;16.63;12.30;;;20.40;99.90;;;;;;20963040;28;20355;-62
2023/09/11 16:13:35;;;;;;;21.02;14.35;;;19.40;99.90;;;;;;21013144;28;20110;-63
2023/09/11 16:23:41;;;;;;;19.15;15.02;;;18.50;99.90;;;;;;20995528;28;20377;-58
2023/09/11 16:33:45;;;;;;;17.00;13.65;;;17.90;99.90;;;;;;21006168;28;20070;-62
2023/09/11 16:43:49;;;;;;;19.33;15.35;;;17.30;99.90;;;;;;21044378;28;20035;-62
2023/09/11 16:53:52;;;;;;;24.60;16.08;;;17.00;99.90;;;;;;21054940;28;20405;-60
2023/09/11 17:03:55;;;;;;;21.88;17.25;;;16.80;99.90;;;;;;21056840;28;20031;-63
2023/09/11 17:13:59;;;;;;;23.17;17.33;;;16.50;99.90;;;;;;21035885;28;20117;-61
2023/09/11 17:24:03;;;;;;;19.58;17.08;;;16.60;99.90;;;;;;21052496;28;20028;-62
2023/09/11 17:34:06;;;;;;;29.60;19.52;;;16.20;99.90;;;;;;21053824;28;20028;-55
2023/09/11 17:44:10;;;;;;;22.50;19.88;;;15.90;99.90;;;;;;21034058;28;20056;-62
2023/09/11 17:54:15;;;;;;;26.13;21.17;;;15.50;99.90;;;;;;21018488;28;20055;-62
2023/09/11 18:04:19;;;;;;;24.40;20.02;;;15.30;99.90;;;;;;21050652;28;20048;-62
2023/09/11 18:14:23;;;;;;;29.02;20.98;;;15.00;99.90;;;;;;20968952;28;20044;-62
2023/09/11 18:24:29;;;;;;;26.20;19.85;;;14.80;99.90;;;;;;20973246;28;20044;-63
2023/09/11 18:34:35;;;;;;;16.70;13.77;;;14.60;99.90;;;;;;20972820;28;20122;-62
2023/09/11 18:44:44;;;;;;;18.98;13.43;;;14.60;99.90;;;;;;20819684;28;20495;-54
2023/09/11 18:54:49;;;;;;;17.50;14.65;;;14.50;99.90;;;;;;20870710;28;20061;-62
2023/09/11 19:04:54;;;;;;;19.95;14.00;;;14.50;99.90;;;;;;20884830;28;20045;-61
2023/09/11 19:14:58;;;;;;;21.67;15.35;;;14.50;99.90;;;;;;20886299;28;20106;-52
2023/09/11 19:25:04;;;;;;;22.85;17.52;;;14.20;99.90;;;;;;20882722;28;20479;-61
2023/09/11 19:35:07;;;;;;;21.35;16.77;;;14.20;99.90;;;;;;20887356;28;20049;-61
2023/09/11 19:45:11;;;;;;;20.02;16.77;;;14.20;99.90;;;;;;20973428;28;20432;-54
2023/09/11 19:55:17;;;;;;;23.63;19.42;;;14.10;99.90;;;;;;20975475;28;20074;-62
2023/09/11 20:05:21;;;;;;;24.60;18.48;;;13.80;99.90;;;;;;20960202;28;20033;-61
2023/09/11 20:15:24;;;;;;;19.10;15.30;;;13.70;99.90;;;;;;21046427;28;20052;-61
2023/09/11 20:25:34;;;;;;;17.33;14.02;;;13.60;99.90;;;;;;21028732;28;20055;-61
2023/09/11 20:35:40;;;;;;;16.02;13.48;;;13.50;99.90;;;;;;20971607;28;20040;-61
2023/09/11 20:45:45;;;;;;;22.05;16.15;;;13.40;99.90;;;;;;21028683;28;20486;-61
2023/09/11 20:55:49;;;;;;;27.85;20.92;;;13.30;99.90;;;;;;20945515;28;20040;-62
2023/09/11 21:05:53;;;;;;;36.15;26.75;;;13.40;99.90;;;;;;21054303;28;20032;-52
2023/09/11 21:15:57;;;;;;;42.90;31.55;;;13.50;99.90;;;;;;21050570;28;20055;-62
2023/09/11 21:26:09;;;;;;;40.33;31.23;;;13.70;99.90;;;;;;21008856;28;20104;-63
2023/09/11 21:36:17;;;;;;;41.75;32.13;;;13.60;99.90;;;;;;21022114;28;20085;-63
2023/09/11 21:46:20;;;;;;;46.60;33.42;;;13.50;99.90;;;;;;21050453;28;20028;-63
2023/09/11 21:56:24;;;;;;;40.83;29.92;;;13.50;99.90;;;;;;21031495;28;20163;-62
2023/09/11 22:06:31;;;;;;;42.92;32.05;;;13.50;99.90;;;;;;21049658;28;20389;-62
2023/09/11 22:16:33;;;;;;;36.22;28.35;;;13.60;99.90;;;;;;21031439;28;20123;-63
2023/09/11 22:26:35;;;;;;;32.88;26.85;;;13.50;99.90;;;;;;21053663;28;20040;-62
2023/09/11 22:36:37;;;;;;;31.15;23.98;;;13.50;99.90;;;;;;21063314;28;20542;-63
2023/09/11 22:46:39;;;;;;;28.08;22.15;;;13.50;99.90;;;;;;21062552;28;20396;-63
2023/09/11 22:56:42;;;;;;;31.35;22.35;;;13.40;99.90;;;;;;21060205;28;20454;-54
2023/09/11 23:06:44;;;;;;;23.85;17.05;;;13.50;99.90;;;;;;21045664;28;20032;-55
2023/09/11 23:16:46;;;;;;;19.35;12.50;;;13.60;99.90;;;;;;21023975;28;20408;-55
2023/09/11 23:26:50;;;;;;;13.13;8.65;;;13.60;99.90;;;;;;21033861;28;20362;-62
2023/09/11 23:36:53;;;;;;;12.13;8.02;;;13.60;99.90;;;;;;21057856;28;20093;-63
2023/09/11 23:46:54;;;;;;;14.23;7.38;;;13.50;99.90;;;;;;21036876;28;20102;-62
2023/09/11 23:56:56;;;;;;;9.80;6.72;;;13.40;99.90;;;;;;21032829;28;20384;-52
